Time;durP1;ratioP1;P1;durP2;ratioP2;P2;SDS_P1;SDS_P2;PMS_P1;PMS_P2;Temp;Humidity;BMP_temperature;BMP_pressure;BME280_temperature;BME280_humidity;BME280_pressure;Samples;Min_cycle;Max_cycle;Signal;HPM_P1;HPM_P2
2022/03/02 00:00:11;;;;;;;9.95;5.97;;;;;;;2.29;41.57;97465.84;4957020;29;20245;-81
2022/03/02 00:02:39;;;;;;;8.65;6.63;;;;;;;2.28;41.60;97464.22;4956468;29;20047;-86
2022/03/02 00:05:09;;;;;;;11.45;7.20;;;;;;;2.33;41.65;97459.53;4956760;29;20059;-81
2022/03/02 00:07:36;;;;;;;8.57;5.97;;;;;;;2.34;41.25;97456.06;4956049;28;20063;-79
2022/03/02 00:10:05;;;;;;;8.13;5.30;;;;;;;2.31;41.34;97458.00;4956639;29;20062;-80
2022/03/02 00:12:33;;;;;;;10.00;5.55;;;;;;;2.26;41.44;97453.19;4957244;29;20437;-81
2022/03/02 00:15:01;;;;;;;8.60;5.22;;;;;;;2.24;41.19;97453.28;4957167;29;20517;-79
2022/03/02 00:17:28;;;;;;;8.80;6.00;;;;;;;2.18;41.24;97448.56;4957976;28;20094;-79
2022/03/02 00:19:56;;;;;;;8.68;5.88;;;;;;;2.15;41.34;97440.25;4960527;29;20059;-80
2022/03/02 00:22:25;;;;;;;7.18;5.18;;;;;;;2.15;41.51;97435.13;4959507;29;20058;-84
2022/03/02 00:24:52;;;;;;;8.25;6.43;;;;;;;2.18;41.66;97432.31;4959978;29;20059;-80
2022/03/02 00:27:23;;;;;;;9.77;5.93;;;;;;;2.18;41.63;97422.84;4958850;28;20525;-82
2022/03/02 00:29:51;;;;;;;10.45;6.57;;;;;;;2.22;41.73;97420.88;4960194;29;20103;-80
2022/03/02 00:32:18;;;;;;;11.90;8.07;;;;;;;2.29;42.49;97411.78;4960215;29;20059;-81
2022/03/02 00:34:46;;;;;;;11.77;8.48;;;;;;;2.28;42.28;97410.16;4959329;29;20421;-83
2022/03/02 00:37:14;;;;;;;9.68;7.68;;;;;;;2.23;42.43;97402.75;4958716;28;20051;-78
2022/03/02 00:39:45;;;;;;;10.60;6.53;;;;;;;2.20;42.10;97408.09;4959589;29;20071;-80
2022/03/02 00:42:13;;;;;;;11.20;6.95;;;;;;;2.15;41.63;97410.19;4959277;29;20055;-81
2022/03/02 00:44:40;;;;;;;12.27;7.20;;;;;;;2.11;41.99;97405.38;4959720;29;20058;-79
2022/03/02 00:47:09;;;;;;;12.50;7.07;;;;;;;2.10;42.05;97414.00;4958343;28;20093;-81
2022/03/02 00:49:37;;;;;;;10.40;7.10;;;;;;;2.10;42.24;97412.28;4959890;29;20055;-78
2022/03/02 00:52:09;;;;;;;11.00;7.47;;;;;;;2.06;42.07;97416.81;4959848;29;20077;-82
2022/03/02 00:54:36;;;;;;;9.60;6.55;;;;;;;2.09;42.47;97422.69;4958945;29;20051;-78
2022/03/02 00:57:05;;;;;;;10.23;6.45;;;;;;;2.09;43.00;97414.97;4957991;28;20051;-79
2022/03/02 00:59:33;;;;;;;8.10;6.03;;;;;;;2.13;42.54;97421.53;4959351;29;20564;-78
2022/03/02 01:02:01;;;;;;;9.77;6.63;;;;;;;2.18;42.42;97422.03;4959400;29;20055;-78
2022/03/02 01:04:28;;;;;;;8.75;5.72;;;;;;;2.16;41.78;97424.69;4959372;29;20055;-80
2022/03/02 01:06:56;;;;;;;9.25;5.85;;;;;;;2.15;41.84;97425.63;4958515;29;20063;-79
2022/03/02 01:09:23;;;;;;;12.25;6.50;;;;;;;2.15;42.00;97409.38;4959040;28;20055;-79
2022/03/02 01:11:51;;;;;;;8.65;5.40;;;;;;;2.15;41.61;97399.09;4959467;29;20059;-81
2022/03/02 01:14:20;;;;;;;8.98;5.63;;;;;;;2.08;41.92;97379.84;4958943;29;20051;-80
2022/03/02 01:16:47;;;;;;;9.20;5.88;;;;;;;2.01;41.63;97382.88;4956483;29;20058;-80
2022/03/02 01:19:15;;;;;;;17.85;8.18;;;;;;;1.98;41.40;97383.06;5049171;23;20051;-81
2022/03/02 01:21:43;;;;;;;17.67;8.27;;;;;;;1.99;41.53;97368.44;4968330;29;20063;-83
2022/03/02 01:24:11;;;;;;;21.95;9.55;;;;;;;2.04;41.71;97362.06;4972108;29;20048;-82
2022/03/02 01:26:39;;;;;;;16.73;7.50;;;;;;;2.11;41.58;97366.78;4970134;29;20057;-83
2022/03/02 01:29:07;;;;;;;12.20;6.88;;;;;;;2.11;41.50;97367.59;4967796;28;20065;-83
2022/03/02 01:31:36;;;;;;;11.27;5.95;;;;;;;2.09;41.76;97378.94;4966565;29;20062;-84
2022/03/02 01:34:05;;;;;;;11.55;6.40;;;;;;;2.11;41.47;97382.22;4973876;28;20043;-86
2022/03/02 01:36:32;;;;;;;16.65;9.60;;;;;;;2.09;41.27;97373.78;4979023;28;20106;-85
2022/03/02 01:39:00;;;;;;;16.23;8.82;;;;;;;2.05;41.40;97373.16;4973325;28;20047;-84
2022/03/02 01:41:28;;;;;;;13.90;7.90;;;;;;;2.02;41.68;97373.41;4964291;29;20078;-83
2022/03/02 01:43:56;;;;;;;10.93;6.60;;;;;;;2.05;42.04;97379.13;4971310;29;20023;-85
2022/03/02 01:46:24;;;;;;;12.68;6.63;;;;;;;2.11;42.27;97371.91;4979985;28;20032;-84
2022/03/02 01:48:54;;;;;;;10.02;6.22;;;;;;;2.19;42.00;97375.59;4969481;28;20047;-83
2022/03/02 01:51:22;;;;;;;8.57;5.93;;;;;;;2.27;41.90;97372.44;4964804;29;20062;-83
2022/03/02 01:53:50;;;;;;;9.00;5.55;;;;;;;2.31;41.41;97371.28;4965080;29;20489;-83
2022/03/02 01:56:19;;;;;;;8.30;5.90;;;;;;;2.30;41.34;97371.44;4962298;29;20110;-83
2022/03/02 01:58:47;;;;;;;9.63;6.72;;;;;;;2.30;41.44;97374.00;4963495;28;20055;-84
2022/03/02 02:01:16;;;;;;;10.30;7.15;;;;;;;2.25;41.61;97376.88;4963375;29;20074;-83
2022/03/02 02:03:45;;;;;;;11.38;6.97;;;;;;;2.14;41.92;97367.34;4964359;29;20049;-83
2022/03/02 02:06:15;;;;;;;9.25;6.45;;;;;;;2.05;41.82;97368.00;4963852;29;20047;-84
2022/03/02 02:08:44;;;;;;;9.65;5.57;;;;;;;1.99;41.94;97363.31;4969234;28;20126;-83
2022/03/02 02:11:14;;;;;;;10.85;5.93;;;;;;;1.98;42.26;97367.63;4963857;29;20065;-83
2022/03/02 02:13:42;;;;;;;8.60;6.00;;;;;;;2.00;43.16;97380.41;4964810;29;20054;-83
2022/03/02 02:16:11;;;;;;;18.35;11.23;;;;;;;2.12;43.82;97386.41;4964420;29;20051;-84
2022/03/02 02:18:41;;;;;;;15.63;10.18;;;;;;;2.13;44.05;97388.06;4968735;28;20102;-83
2022/03/02 02:21:10;;;;;;;13.18;9.77;;;;;;;2.10;44.26;97385.69;4965104;29;20075;-83
2022/03/02 02:23:40;;;;;;;17.08;9.25;;;;;;;2.02;44.11;97387.06;4964889;28;20054;-83
2022/03/02 02:26:07;;;;;;;10.70;7.57;;;;;;;1.95;43.93;97383.31;4963922;29;20070;-83
2022/03/02 02:28:36;;;;;;;10.05;7.15;;;;;;;1.87;43.85;97380.44;4964231;28;20351;-83
2022/03/02 02:31:04;;;;;;;9.60;6.68;;;;;;;1.77;43.79;97382.84;4964073;29;20058;-83
2022/03/02 02:33:33;;;;;;;10.63;6.30;;;;;;;1.75;44.31;97376.16;4964558;29;20055;-83
2022/03/02 02:36:00;;;;;;;13.85;7.57;;;;;;;1.81;44.73;97371.41;4963956;29;20058;-83
2022/03/02 02:38:30;;;;;;;10.98;7.55;;;;;;;1.87;45.20;97362.44;4966667;28;20065;-83
2022/03/02 02:40:58;;;;;;;13.10;7.50;;;;;;;1.87;44.66;97353.91;4965242;28;20047;-83
2022/03/02 02:43:27;;;;;;;12.20;8.02;;;;;;;1.84;44.82;97345.47;4964513;29;20055;-83
2022/03/02 02:45:55;;;;;;;14.82;7.68;;;;;;;1.84;44.63;97344.66;4964817;29;20059;-83
2022/03/02 02:48:24;;;;;;;8.48;6.30;;;;;;;1.82;44.38;97337.03;4967733;28;20055;-85
2022/03/02 02:50:52;;;;;;;11.13;7.03;;;;;;;1.78;44.66;97334.78;4978879;28;20102;-83
2022/03/02 02:53:20;;;;;;;13.57;7.18;;;;;;;1.75;44.82;97332.41;4979504;28;20091;-84
2022/03/02 02:55:50;;;;;;;10.02;6.70;;;;;;;1.72;44.69;97328.31;4978833;28;20054;-86
2022/03/02 02:58:18;;;;;;;10.23;6.60;;;;;;;1.70;44.81;97322.47;4979351;28;20067;-84
2022/03/02 03:00:48;;;;;;;10.80;7.43;;;;;;;1.67;44.79;97316.72;4979357;28;20055;-83
2022/03/02 03:03:18;;;;;;;8.25;5.93;;;;;;;1.66;45.06;97310.75;4974418;28;20055;-82
2022/03/02 03:05:46;;;;;;;8.95;6.40;;;;;;;1.71;45.03;97313.84;4968706;29;20060;-85
2022/03/02 03:08:15;;;;;;;9.57;6.57;;;;;;;1.74;44.93;97316.19;4967191;28;20047;-82
2022/03/02 03:10:45;;;;;;;9.00;5.95;;;;;;;1.69;44.88;97320.03;4965420;29;20058;-82
2022/03/02 03:13:15;;;;;;;8.65;6.22;;;;;;;1.61;45.03;97313.66;4965270;29;20399;-82
2022/03/02 03:15:44;;;;;;;11.18;6.78;;;;;;;1.59;44.91;97305.22;4964816;29;20051;-84
2022/03/02 03:18:13;;;;;;;9.18;6.10;;;;;;;1.56;44.93;97305.44;4969029;28;20069;-83
2022/03/02 03:20:42;;;;;;;10.95;5.88;;;;;;;1.54;44.98;97306.47;4978673;29;20095;-84
2022/03/02 03:23:10;;;;;;;9.20;6.07;;;;;;;1.49;44.77;97299.09;4978975;29;20047;-84
2022/03/02 03:25:39;;;;;;;11.13;6.90;;;;;;;1.52;45.09;97292.91;4978871;28;20059;-83
2022/03/02 03:28:07;;;;;;;10.50;6.50;;;;;;;1.56;44.99;97290.00;4975339;29;20118;-83
2022/03/02 03:30:36;;;;;;;9.23;6.50;;;;;;;1.59;44.94;97284.66;4969773;29;20063;-82
2022/03/02 03:33:05;;;;;;;12.18;6.90;;;;;;;1.58;45.06;97272.72;4972733;29;20061;-82
2022/03/02 03:35:34;;;;;;;12.15;6.32;;;;;;;1.59;44.95;97279.50;4969383;29;20063;-82
2022/03/02 03:38:02;;;;;;;9.68;6.57;;;;;;;1.58;44.78;97277.88;4968860;29;20052;-83
2022/03/02 03:40:30;;;;;;;12.43;7.07;;;;;;;1.58;44.59;97277.06;4967379;28;20134;-82
2022/03/02 03:42:59;;;;;;;9.25;6.55;;;;;;;1.61;44.95;97274.25;4966335;29;20114;-84
2022/03/02 03:45:27;;;;;;;8.45;6.18;;;;;;;1.67;44.75;97275.59;4965850;29;20053;-84
2022/03/02 03:47:58;;;;;;;10.07;6.93;;;;;;;1.71;45.05;97269.28;4970033;29;20057;-82
2022/03/02 03:50:25;;;;;;;12.60;7.95;;;;;;;1.75;45.59;97273.25;4966358;28;20055;-83
2022/03/02 03:52:53;;;;;;;9.68;7.05;;;;;;;1.76;45.23;97274.91;4968054;28;20047;-83
2022/03/02 03:55:21;;;;;;;9.57;6.63;;;;;;;1.76;45.27;97280.06;4968667;29;20122;-81
2022/03/02 03:57:49;;;;;;;10.25;6.80;;;;;;;1.82;46.38;97284.78;4969164;29;20048;-81
2022/03/02 04:00:20;;;;;;;11.77;7.93;;;;;;;1.91;46.37;97285.88;4976398;28;20041;-81
2022/03/02 04:02:48;;;;;;;12.00;8.18;;;;;;;1.94;46.42;97283.88;4982098;28;20039;-80
2022/03/02 04:05:18;;;;;;;14.48;8.98;;;;;;;1.97;46.34;97272.56;4981852;28;20074;-80
2022/03/02 04:07:47;;;;;;;12.38;8.40;;;;;;;1.92;46.19;97279.78;4980559;28;20054;-80
2022/03/02 04:10:16;;;;;;;9.25;6.88;;;;;;;1.89;45.75;97282.59;4980719;28;20042;-80
2022/03/02 04:12:44;;;;;;;11.68;8.40;;;;;;;1.89;46.19;97282.59;4980677;29;20035;-81
2022/03/02 04:15:13;;;;;;;13.38;7.88;;;;;;;1.87;46.10;97271.56;4980606;29;20051;-80
2022/03/02 04:17:41;;;;;;;9.95;7.22;;;;;;;1.88;47.17;97268.91;4978544;28;20069;-82
2022/03/02 04:20:10;;;;;;;10.52;7.55;;;;;;;1.97;46.70;97275.94;4978907;28;20031;-80
2022/03/02 04:22:39;;;;;;;12.85;8.10;;;;;;;2.06;46.39;97277.84;4979933;29;20027;-80
2022/03/02 04:25:08;;;;;;;11.15;8.02;;;;;;;1.99;46.22;97273.25;4982387;28;20046;-82
2022/03/02 04:27:35;;;;;;;12.05;8.02;;;;;;;1.86;46.07;97268.19;4980420;28;20045;-81
2022/03/02 04:30:05;;;;;;;9.73;7.03;;;;;;;1.79;45.50;97269.53;4973618;28;20055;-80
2022/03/02 04:32:32;;;;;;;10.25;6.40;;;;;;;1.74;45.11;97266.50;4970229;29;20051;-80
2022/03/02 04:35:00;;;;;;;8.48;6.30;;;;;;;1.72;45.19;97263.22;4981625;28;20120;-81
2022/03/02 04:37:27;;;;;;;9.70;6.20;;;;;;;1.75;44.93;97262.97;4977889;28;20107;-81
2022/03/02 04:39:57;;;;;;;8.35;5.72;;;;;;;1.76;44.74;97265.44;4974102;28;20051;-84
2022/03/02 04:42:24;;;;;;;9.75;6.55;;;;;;;1.80;43.95;97271.19;4971701;29;20053;-81
2022/03/02 04:44:52;;;;;;;11.43;6.10;;;;;;;1.73;43.85;97264.84;4970626;29;20514;-81
2022/03/02 04:47:19;;;;;;;9.35;6.30;;;;;;;1.61;43.59;97269.13;4971543;29;20055;-81
2022/03/02 04:49:47;;;;;;;12.02;5.93;;;;;;;1.47;43.62;97270.09;4976916;28;20055;-82
2022/03/02 04:52:15;;;;;;;10.70;7.05;;;;;;;1.40;43.78;97261.16;4973444;29;20055;-80
2022/03/02 04:57:29;;;;;;;12.35;6.93;;;;;;;1.28;43.46;97256.91;4971617;29;20055;-80
2022/03/02 04:59:57;;;;;;;15.90;7.30;;;;;;;1.29;43.75;97250.81;4971132;28;20047;-81
2022/03/02 05:02:24;;;;;;;11.40;6.75;;;;;;;1.31;43.39;97259.25;4975162;29;20062;-81
2022/03/02 05:04:52;;;;;;;13.70;7.63;;;;;;;1.30;43.54;97252.47;4977495;28;20059;-81
2022/03/02 05:07:20;;;;;;;12.80;7.25;;;;;;;1.30;43.37;97255.03;4974620;29;20051;-81
2022/03/02 05:09:48;;;;;;;12.10;7.50;;;;;;;1.30;43.40;97253.28;4975418;28;20067;-83
2022/03/02 05:12:16;;;;;;;11.85;7.00;;;;;;;1.33;43.70;97250.50;4977378;29;20057;-82
2022/03/02 05:14:45;;;;;;;9.15;5.97;;;;;;;1.38;43.62;97251.00;4977005;29;20045;-81
2022/03/02 05:17:12;;;;;;;13.88;8.45;;;;;;;1.37;43.44;97251.09;4975892;29;20043;-81
2022/03/02 05:19:41;;;;;;;12.23;7.10;;;;;;;1.38;43.24;97239.91;4975955;28;20055;-81
2022/03/02 05:22:09;;;;;;;13.70;7.07;;;;;;;1.35;43.31;97240.91;4976135;29;20079;-81
2022/03/02 05:24:37;;;;;;;9.63;6.15;;;;;;;1.32;43.30;97246.28;4977206;29;20115;-81
2022/03/02 05:27:06;;;;;;;10.95;6.68;;;;;;;1.21;43.20;97244.47;4975419;29;20138;-81
2022/03/02 05:29:33;;;;;;;12.65;7.85;;;;;;;1.12;43.11;97239.97;4974187;28;20126;-81
2022/03/02 05:32:03;;;;;;;14.35;7.32;;;;;;;1.08;43.68;97248.03;4972138;29;20048;-81
2022/03/02 05:34:31;;;;;;;13.35;7.00;;;;;;;1.07;44.04;97236.91;4970419;29;20137;-82
2022/03/02 05:36:58;;;;;;;10.73;7.38;;;;;;;1.10;43.74;97241.84;4969511;29;20055;-81
2022/03/02 05:39:27;;;;;;;8.18;5.45;;;;;;;1.13;43.84;97240.78;4970161;28;20047;-81
2022/03/02 05:41:55;;;;;;;10.15;5.47;;;;;;;1.16;43.63;97238.84;4971491;29;20061;-81
2022/03/02 05:44:23;;;;;;;9.15;5.57;;;;;;;1.17;43.44;97235.34;4971148;29;20468;-81
2022/03/02 05:46:51;;;;;;;10.13;6.05;;;;;;;1.13;43.36;97240.78;4968882;29;20048;-82
2022/03/02 05:49:20;;;;;;;9.43;5.78;;;;;;;1.10;43.14;97246.16;4968465;28;20059;-81
2022/03/02 05:51:48;;;;;;;13.73;7.53;;;;;;;1.10;43.50;97244.41;4971227;29;20047;-81
2022/03/02 05:54:16;;;;;;;8.23;5.88;;;;;;;1.10;43.25;97243.59;4974997;29;20051;-82
2022/03/02 05:56:44;;;;;;;7.70;5.28;;;;;;;1.10;43.67;97236.69;4974546;29;20051;-82
2022/03/02 05:59:16;;;;;;;9.95;6.68;;;;;;;1.14;43.53;97242.47;4980296;28;20103;-84
2022/03/02 06:01:44;;;;;;;12.82;6.10;;;;;;;1.14;43.48;97243.28;4979631;28;20044;-84
2022/03/02 06:04:13;;;;;;;9.25;5.97;;;;;;;1.15;43.58;97244.09;4981059;28;20039;-85
2022/03/02 06:06:43;;;;;;;11.27;5.97;;;;;;;1.17;43.17;97243.03;4980679;28;20091;-83
2022/03/02 06:09:12;;;;;;;12.48;6.55;;;;;;;1.12;43.19;97247.69;4980557;28;20043;-83
2022/03/02 06:11:43;;;;;;;11.18;5.55;;;;;;;1.07;43.12;97244.59;4974943;28;20043;-87
2022/03/02 06:14:12;;;;;;;11.10;6.43;;;;;;;1.05;43.63;97246.50;4978959;28;20035;-82
2022/03/02 06:16:45;;;;;;;9.65;6.28;;;;;;;1.10;43.48;97241.84;4977123;28;20062;-86
2022/03/02 06:19:15;;;;;;;12.68;6.15;;;;;;;1.11;43.53;97238.31;4979914;28;20051;-87
2022/03/02 06:21:48;;;;;;;11.55;6.65;;;;;;;1.15;44.53;97229.47;4979716;28;20066;-83
2022/03/02 06:24:18;;;;;;;15.18;6.75;;;;;;;1.22;43.99;97230.72;4979514;28;20112;-86
2022/03/02 06:26:47;;;;;;;9.35;5.90;;;;;;;1.26;43.68;97225.34;4980293;28;20047;-87
2022/03/02 06:29:16;;;;;;;15.70;6.45;;;;;;;1.18;43.49;97231.84;4980013;28;20031;-83
2022/03/02 06:31:44;;;;;;;9.88;6.55;;;;;;;1.15;43.67;97234.63;4978038;28;20055;-82
2022/03/02 06:34:14;;;;;;;9.20;5.82;;;;;;;1.18;43.72;97231.00;4973234;28;20051;-81
2022/03/02 06:36:41;;;;;;;14.70;6.78;;;;;;;1.16;43.61;97232.88;4962068;29;20051;-81
2022/03/02 06:39:10;;;;;;;9.65;6.38;;;;;;;1.08;43.77;97230.84;4966260;28;20052;-81
2022/03/02 06:41:50;;;;;;;14.10;7.32;;;;;;;1.02;43.76;97238.97;4966432;29;20421;-83
2022/03/02 06:44:25;;;;;;;14.27;8.32;;;;;;;0.96;43.88;97239.41;4953884;29;20131;-81
2022/03/02 06:46:59;;;;;;;15.23;8.25;;;;;;;0.98;43.90;97242.69;4954927;29;20107;-83
2022/03/02 06:49:37;;;;;;;13.68;7.57;;;;;;;1.03;43.89;97240.63;4960011;28;20095;-85
2022/03/02 06:52:08;;;;;;;10.52;6.97;;;;;;;1.13;43.71;97235.66;4961082;28;20076;-83
2022/03/02 06:54:43;;;;;;;11.07;6.63;;;;;;;1.24;43.40;97235.72;4951655;28;20478;-83
2022/03/02 06:57:13;;;;;;;10.65;6.10;;;;;;;1.27;43.24;97229.53;4952991;29;20048;-82
2022/03/02 06:59:43;;;;;;;9.18;6.22;;;;;;;1.28;43.33;97234.59;4967848;28;20051;-81
2022/03/02 07:02:12;;;;;;;9.23;6.50;;;;;;;1.29;42.94;97231.09;4970565;29;20051;-82
2022/03/02 07:04:43;;;;;;;11.40;6.22;;;;;;;1.34;43.04;97223.88;4964796;29;20070;-83
2022/03/02 07:07:12;;;;;;;10.23;6.78;;;;;;;1.40;43.05;97227.75;4964393;29;20058;-81
2022/03/02 07:09:41;;;;;;;11.55;7.25;;;;;;;1.43;43.02;97223.22;4966378;28;20133;-80
2022/03/02 07:12:10;;;;;;;11.02;6.40;;;;;;;1.46;43.04;97217.03;4951426;28;20130;-83
2022/03/02 07:14:40;;;;;;;11.52;7.05;;;;;;;1.49;43.12;97216.81;4949761;29;20052;-83
2022/03/02 07:17:08;;;;;;;12.55;6.85;;;;;;;1.54;42.93;97214.72;4945562;29;20055;-82
2022/03/02 07:19:41;;;;;;;11.95;6.45;;;;;;;1.63;43.20;97216.63;5053254;23;20058;-82
2022/03/02 08:47:44;;;;;;;9.73;7.25;;;;;;;4.04;41.22;97222.25;5083504;23;20040;-81
2022/03/02 09:32:33;;;;;;;12.27;7.55;;;;;;;6.34;37.61;97186.00;5885369;23;20066;-81
2022/03/02 09:38:59;;;;;;;10.55;7.38;;;;;;;6.82;36.39;97195.38;4921562;29;20569;-81
2022/03/02 09:42:11;;;;;;;11.27;7.20;;;;;;;7.03;37.37;97187.38;4920184;29;20051;-80
2022/03/02 09:44:58;;;;;;;12.05;7.50;;;;;;;7.34;36.81;97189.66;4888703;29;20104;-80
2022/03/02 09:51:12;;;;;;;13.10;7.45;;;;;;;8.48;34.51;97174.16;4917660;29;20060;-80
2022/03/02 10:07:40;;;;;;;13.15;7.15;;;;;;;10.62;31.52;97167.47;4939102;29;20063;-80
2022/03/02 10:10:23;;;;;;;15.80;8.50;;;;;;;10.91;31.56;97175.53;4922288;29;20058;-81
2022/03/02 10:12:56;;;;;;;11.82;7.80;;;;;;;11.24;30.39;97164.09;4902908;29;20036;-81
2022/03/02 10:15:31;;;;;;;12.93;7.20;;;;;;;11.55;30.51;97151.00;4897900;29;20063;-81
2022/03/02 10:18:12;;;;;;;11.65;6.90;;;;;;;11.80;29.25;97153.44;4912901;29;20041;-82
2022/03/02 10:23:40;;;;;;;13.75;6.93;;;;;;;12.21;29.66;97153.94;5755813;23;20039;-82
2022/03/02 10:32:08;;;;;;;7.72;6.90;;;;;;;12.66;29.72;97139.06;5615382;23;20054;-82
2022/03/02 10:35:12;;;;;;;14.45;7.32;;;;;;;12.85;28.09;97136.88;5570139;23;20055;-82
2022/03/02 11:12:58;;;;;;;9.68;7.28;;;;;;;15.72;24.55;97113.38;5773051;23;20053;-83
2022/03/02 11:24:16;;;;;;;13.35;6.90;;;;;;;15.14;25.58;97101.53;5109791;23;20086;-87
2022/03/02 11:34:51;;;;;;;11.48;7.97;;;;;;;14.22;25.38;97086.97;5240045;23;20058;-80
2022/03/02 11:37:25;;;;;;;10.95;6.90;;;;;;;13.88;25.71;97090.34;4955307;29;20490;-81
2022/03/02 11:39:54;;;;;;;11.38;8.60;;;;;;;13.62;25.90;97085.72;4957161;28;20537;-80
2022/03/02 11:42:30;;;;;;;11.95;8.05;;;;;;;13.29;26.08;97086.22;4955292;29;20055;-81
2022/03/02 11:45:00;;;;;;;10.07;7.80;;;;;;;13.03;26.23;97065.78;4955312;29;20490;-80
2022/03/02 11:47:35;;;;;;;11.45;8.45;;;;;;;12.73;26.27;97071.91;4956315;29;20059;-80
2022/03/02 11:50:07;;;;;;;10.75;8.18;;;;;;;12.47;26.94;97069.78;4955017;28;20114;-81
2022/03/02 11:52:38;;;;;;;9.85;7.93;;;;;;;12.22;27.01;97071.03;4955513;28;20450;-81
2022/03/02 11:55:14;;;;;;;11.07;8.18;;;;;;;11.94;27.28;97071.66;4955171;28;20059;-81
2022/03/02 11:57:53;;;;;;;13.45;9.07;;;;;;;11.64;27.74;97068.16;4955280;28;20098;-81
2022/03/02 12:05:41;;;;;;;16.70;9.43;;;;;;;10.99;29.04;97066.81;5242166;23;20179;-80
2022/03/02 12:08:13;;;;;;;11.88;7.93;;;;;;;10.78;29.37;97067.41;4973751;28;20054;-81
2022/03/02 12:10:58;;;;;;;12.40;8.55;;;;;;;10.61;29.65;97059.69;4973922;28;20141;-79
2022/03/02 12:13:36;;;;;;;13.48;8.63;;;;;;;10.45;29.82;97059.75;4976382;28;20070;-82
2022/03/02 12:16:13;;;;;;;12.07;8.50;;;;;;;10.25;29.96;97060.13;4980627;28;20051;-81
2022/03/02 12:18:48;;;;;;;11.35;8.35;;;;;;;10.10;30.19;97061.78;4977631;28;20050;-81
2022/03/02 12:21:29;;;;;;;16.60;8.13;;;;;;;9.94;30.41;97062.66;4978077;28;20170;-80
2022/03/02 12:24:12;;;;;;;11.35;8.02;;;;;;;9.77;30.37;97069.66;4970068;28;20062;-81
2022/03/02 12:30:10;;;;;;;12.63;7.82;;;;;;;9.36;30.29;97068.88;4972343;28;20149;-79
2022/03/02 12:32:56;;;;;;;14.57;8.00;;;;;;;9.16;30.52;97070.97;4983104;28;20109;-80
2022/03/02 12:48:04;;;;;;;13.05;7.93;;;;;;;8.39;31.40;97040.69;4957773;29;20074;-79
2022/03/02 13:20:48;;;;;;;13.30;8.53;;;;;;;7.89;33.29;97014.66;5276183;23;20063;-79
2022/03/02 13:23:19;;;;;;;12.75;8.60;;;;;;;7.89;33.38;97019.84;4957625;29;20480;-81
2022/03/02 13:26:13;;;;;;;14.25;8.40;;;;;;;7.87;33.24;97020.03;4959742;28;20055;-79
2022/03/02 13:29:08;;;;;;;11.98;8.15;;;;;;;7.84;33.29;97021.13;4973008;29;20066;-80
2022/03/02 13:31:56;;;;;;;12.65;8.20;;;;;;;7.87;33.90;97014.00;4938370;29;20056;-80
2022/03/02 13:34:25;;;;;;;11.73;8.30;;;;;;;7.86;33.97;97018.38;4938632;29;20055;-79
2022/03/02 13:36:55;;;;;;;12.55;9.88;;;;;;;7.88;33.85;97010.44;4936992;29;20066;-80
2022/03/02 13:39:26;;;;;;;15.10;9.25;;;;;;;7.88;33.89;97010.44;4937882;29;20537;-80
2022/03/02 13:41:56;;;;;;;12.30;8.77;;;;;;;7.89;33.78;97004.25;4937812;29;20047;-80
2022/03/02 13:44:36;;;;;;;16.75;9.65;;;;;;;7.84;33.91;97002.94;4937960;29;20067;-79
2022/03/02 13:47:23;;;;;;;16.10;8.00;;;;;;;7.80;34.08;97003.41;4936932;29;20433;-80
2022/03/02 13:50:00;;;;;;;10.80;8.75;;;;;;;7.75;34.24;97005.66;4937376;29;20051;-80
2022/03/02 13:53:02;;;;;;;13.65;8.48;;;;;;;7.70;34.20;97011.31;4937090;29;20044;-81
2022/03/02 13:55:39;;;;;;;13.63;8.45;;;;;;;7.70;34.76;96998.34;4938286;29;20063;-82
2022/03/02 13:58:28;;;;;;;16.42;8.27;;;;;;;7.74;34.36;97006.59;4936292;29;20079;-81
2022/03/02 14:01:12;;;;;;;11.65;7.78;;;;;;;7.76;34.44;97008.09;4936505;29;20054;-81
2022/03/02 14:03:43;;;;;;;17.65;8.60;;;;;;;7.81;34.69;97010.25;4937567;29;20085;-80
2022/03/02 14:06:12;;;;;;;13.70;8.25;;;;;;;7.86;34.22;97009.78;4938333;29;20152;-80
2022/03/02 14:08:46;;;;;;;21.38;8.73;;;;;;;7.83;34.42;97009.13;4936496;29;20059;-82
2022/03/02 14:11:33;;;;;;;17.10;7.72;;;;;;;7.80;34.70;97009.41;4936989;29;20062;-82
2022/03/02 14:14:00;;;;;;;12.40;8.18;;;;;;;7.73;34.92;97003.19;4936355;29;20055;-81
2022/03/02 14:16:28;;;;;;;12.15;8.45;;;;;;;7.69;35.09;97001.88;4935575;29;20082;-82
2022/03/02 14:19:08;;;;;;;11.95;8.80;;;;;;;7.72;34.80;97006.78;4936414;29;20486;-82
2022/03/02 14:21:37;;;;;;;15.88;8.93;;;;;;;7.73;34.72;96998.00;4936060;29;20047;-80
2022/03/02 14:24:14;;;;;;;12.02;8.45;;;;;;;7.77;35.51;97001.94;4938878;29;20470;-80
2022/03/02 14:26:58;;;;;;;11.35;8.05;;;;;;;7.86;35.21;97004.59;4942252;29;20058;-82
2022/03/02 14:29:27;;;;;;;13.93;7.90;;;;;;;7.85;35.29;97001.19;4939056;29;20059;-81
2022/03/02 14:31:57;;;;;;;12.52;7.97;;;;;;;7.84;35.33;97000.34;4938542;29;20058;-81
2022/03/02 14:34:26;;;;;;;13.57;8.25;;;;;;;7.79;35.28;96992.22;4938033;29;20055;-81
2022/03/02 14:37:11;;;;;;;10.35;7.50;;;;;;;7.77;35.28;96999.34;4936982;29;20058;-81
2022/03/02 14:40:04;;;;;;;10.25;7.45;;;;;;;7.72;35.31;96991.19;4937150;29;20044;-82
2022/03/02 14:42:33;;;;;;;8.98;7.43;;;;;;;7.71;35.16;96997.34;4939555;29;20059;-82
2022/03/02 14:45:10;;;;;;;10.93;8.18;;;;;;;7.71;34.90;97005.13;4941915;29;20139;-80
2022/03/02 14:47:39;;;;;;;9.65;7.15;;;;;;;7.63;35.12;97000.72;4936043;29;20059;-80
2022/03/02 14:50:17;;;;;;;11.68;8.80;;;;;;;7.54;35.27;96996.47;4936307;29;20047;-81
2022/03/02 14:52:51;;;;;;;14.70;7.88;;;;;;;7.52;35.43;97000.97;4936837;29;20052;-80
2022/03/02 14:55:29;;;;;;;13.20;7.97;;;;;;;7.55;35.75;96999.84;4937127;29;20110;-82
2022/03/02 14:57:58;;;;;;;13.43;7.50;;;;;;;7.59;36.38;97006.38;4935771;29;20063;-80
2022/03/02 15:00:27;;;;;;;14.68;8.23;;;;;;;7.61;35.28;96994.88;4936537;29;20048;-81
2022/03/02 15:02:54;;;;;;;12.77;8.60;;;;;;;7.61;34.79;97001.84;4936810;29;20061;-81
2022/03/02 15:05:23;;;;;;;11.93;8.18;;;;;;;7.57;35.11;97003.13;4937349;29;20055;-81
2022/03/02 15:07:52;;;;;;;16.20;8.82;;;;;;;7.51;34.71;96999.34;4935928;29;20055;-81
2022/03/02 15:10:21;;;;;;;12.63;7.80;;;;;;;7.46;35.33;97001.59;4936707;29;20063;-80
2022/03/02 15:15:39;;;;;;;15.07;9.63;;;;;;;7.35;35.38;96997.47;4937831;29;20062;-81
2022/03/02 15:18:26;;;;;;;9.80;8.10;;;;;;;7.32;35.70;96999.53;4935558;29;20474;-81
2022/03/02 15:20:55;;;;;;;14.20;9.15;;;;;;;7.31;35.32;97001.31;4935308;29;20051;-80
2022/03/02 15:23:23;;;;;;;14.30;9.05;;;;;;;7.32;35.09;96991.75;4935526;29;20051;-81
2022/03/02 15:25:51;;;;;;;13.38;8.77;;;;;;;7.31;35.21;96985.75;4935526;29;20581;-81
2022/03/02 15:28:21;;;;;;;12.30;8.13;;;;;;;7.33;35.49;96978.63;4935522;29;20565;-81
2022/03/02 15:30:48;;;;;;;12.88;8.90;;;;;;;7.35;35.23;96983.69;4935327;29;20048;-80
2022/03/02 15:33:18;;;;;;;12.93;9.57;;;;;;;7.31;35.13;96983.16;4935536;29;20142;-80
2022/03/02 15:35:45;;;;;;;18.73;10.73;;;;;;;7.29;35.35;96989.47;4934400;29;20083;-80
2022/03/02 15:38:15;;;;;;;12.63;8.98;;;;;;;7.27;35.29;96987.00;4934935;29;20059;-80
2022/03/02 15:40:44;;;;;;;13.93;8.75;;;;;;;7.24;35.72;96989.91;4934461;29;20083;-81
2022/03/02 15:43:14;;;;;;;11.65;8.90;;;;;;;7.21;35.54;96979.81;4938744;29;20055;-81
2022/03/02 15:45:46;;;;;;;11.75;7.45;;;;;;;7.20;35.38;96980.81;4935814;29;20067;-80
2022/03/02 15:48:16;;;;;;;12.48;7.63;;;;;;;7.19;35.56;96971.38;4940645;29;20494;-81
2022/03/02 15:50:46;;;;;;;16.95;8.18;;;;;;;7.17;35.54;96981.94;4941923;29;20056;-81
2022/03/02 15:53:15;;;;;;;17.05;9.40;;;;;;;7.14;35.79;96982.22;4940996;29;20052;-82
2022/03/02 15:55:45;;;;;;;13.35;8.02;;;;;;;7.13;35.79;96974.59;4942377;29;20051;-79
2022/03/02 15:58:14;;;;;;;13.48;8.85;;;;;;;7.13;35.77;96982.38;4945137;29;20056;-82
2022/03/02 16:00:45;;;;;;;12.52;8.15;;;;;;;7.13;35.97;96979.78;4942624;29;20052;-82
2022/03/02 16:03:17;;;;;;;11.00;7.75;;;;;;;7.11;35.72;96977.34;4942680;29;20361;-82
2022/03/02 16:05:47;;;;;;;13.90;8.68;;;;;;;7.12;35.88;96980.75;4952376;29;20063;-79
2022/03/02 16:08:17;;;;;;;19.35;10.80;;;;;;;7.14;36.13;96978.81;4958070;29;20198;-81
2022/03/02 16:10:46;;;;;;;13.02;9.07;;;;;;;7.13;35.63;96985.78;4958377;29;20058;-82
2022/03/02 16:13:18;;;;;;;16.23;10.30;;;;;;;7.12;36.00;96988.53;4954049;29;20067;-82
2022/03/02 16:15:49;;;;;;;13.40;8.55;;;;;;;7.11;35.83;96997.28;4949422;29;20062;-79
2022/03/02 16:18:21;;;;;;;14.00;8.80;;;;;;;7.11;35.81;96999.88;4954004;29;20086;-79